M I D A S
Marine Information and Data Acquisition System
Tripno 817 of the Zeeleeuw from 2004-12-10 08:16:39 to 2004-12-10 13:07:11
Back to CruiseResearch ActivitiesStationsMapUnderway DataData graphs

EquipmentUnitsComment
TimeDGPSUTC
LatitudeDGPSDM.mWGS84
LongitudeDGPSDM.mWGS84
HeadingGyrodeg 
SOGDGPSknotsSpeed over ground
COGDGPSdegCourse over ground
DepthEcho soundermeters200 kHz
Missing or incorrect values are displayed as -999
Navigation data collected by the RV Zeeleeuw from 2004-12-10 07:56:23 to 2004-12-10 12:17:53
Time Latitude Longitude Heading SOG COG Depth
2004-12-10 07:56:38 51°13.593 2°56.099 136.7 0.3 147 8.5
2004-12-10 07:56:43 51°13.592 2°56.1 137.1 0.3 147 8.6
2004-12-10 07:56:49 51°13.591 2°56.102 137.3 0.3 147 8.6
2004-12-10 07:56:54 51°13.589 2°56.104 137.7 0.3 147 8.5
2004-12-10 07:56:56 51°13.589 2°56.105 137.9 1.4 137 8.6
2004-12-10 07:57:04 51°13.586 2°56.109 138.2 1.7 135 8.9
2004-12-10 07:57:09 51°13.584 2°56.112 138.4 1.7 137 9.4
2004-12-10 07:57:14 51°13.583 2°56.114 138.6 1.7 136 10.2
2004-12-10 07:57:16 51°13.582 2°56.115 138.7 1.8 136 10.3
2004-12-10 07:57:23 51°13.579 2°56.12 138.5 1.9 136 10.5
2004-12-10 07:57:26 51°13.578 2°56.122 137.5 2 134 10.5
2004-12-10 07:57:34 51°13.575 2°56.127 136.4 1.9 132 10.9
2004-12-10 07:57:44 51°13.572 2°56.133 134.5 1.8 131 9.8
2004-12-10 07:57:51 51°13.569 2°56.137 133.6 1.8 131 9.3
2004-12-10 07:57:56 51°13.568 2°56.14 133 1.7 130 9.5
2004-12-10 07:58:01 51°13.566 2°56.143 132.6 1.7 129 10.1
2004-12-10 07:58:04 51°13.566 2°56.145 132.2 1.6 130 10.3
2004-12-10 07:58:11 51°13.563 2°56.149 131.9 1.6 130 10
2004-12-10 07:58:15 51°13.563 2°56.151 131.7 1.5 129 10.7
2004-12-10 07:58:21 51°13.561 2°56.154 131.5 1.5 129 10.9
2004-12-10 07:58:26 51°13.56 2°56.156 131.5 1.3 129 11
2004-12-10 07:58:31 51°13.559 2°56.158 131.5 1.3 128 11
2004-12-10 07:58:34 51°13.558 2°56.16 131.5 1.3 127 11.1
2004-12-10 07:58:45 51°13.557 2°56.164 131.5 0.9 125 10.9
2004-12-10 07:58:51 51°13.556 2°56.165 131.2 0.7 116 10.8
2004-12-10 07:58:55 51°13.555 2°56.166 130.4 0.7 116 10.6
2004-12-10 07:58:58 51°13.555 2°56.167 129.3 0.7 114 10.4
2004-12-10 07:59:16 51°13.554 2°56.172 126.2 0.5 113 10.7
2004-12-10 07:59:26 51°13.554 2°56.173 125 0.4 116 10.6
2004-12-10 07:59:31 51°13.554 2°56.174 124.5 0.4 116 10.6
2004-12-10 07:59:35 51°13.554 2°56.174 123.9 0.4 116 10.5
2004-12-10 07:59:41 51°13.554 2°56.175 123.3 0.2 32 10.5
2004-12-10 08:00:08 51°13.557 2°56.168 119.4 0.2 338 -999
2004-12-10 08:00:14 51°13.558 2°56.166 119 0.9 308 10.6
2004-12-10 08:00:18 51°13.559 2°56.164 118.3 1.2 297 -999
2004-12-10 08:00:24 51°13.56 2°56.159 118.4 1.9 295 -999
2004-12-10 08:00:29 51°13.562 2°56.155 119 2.1 296 -999
2004-12-10 08:00:34 51°13.563 2°56.15 119.3 2.6 296 10.8
2004-12-10 08:00:39 51°13.565 2°56.144 119.6 2.6 296 -999
2004-12-10 08:00:43 51°13.567 2°56.139 120 3.1 297 -999
2004-12-10 08:00:49 51°13.569 2°56.131 120.4 3.1 297 -999
2004-12-10 08:00:54 51°13.571 2°56.125 120.5 3 296 -999
2004-12-10 08:00:59 51°13.573 2°56.12 120.5 3 296 -999
2004-12-10 08:01:04 51°13.575 2°56.114 120.8 2.8 296 -999
2004-12-10 08:01:07 51°13.575 2°56.111 121.2 2.7 297 -999
2004-12-10 08:01:13 51°13.578 2°56.105 121.7 2.6 297 10.7
2004-12-10 08:01:19 51°13.58 2°56.099 122.1 2.6 297 10.7
2004-12-10 08:01:23 51°13.581 2°56.095 122.6 2.5 299 10.6
2004-12-10 08:01:29 51°13.583 2°56.089 123.1 2.4 301 10.6
2004-12-10 08:01:33 51°13.584 2°56.086 123.6 2.2 302 10.6
2004-12-10 08:01:39 51°13.585 2°56.082 123.8 2.2 302 11
2004-12-10 08:01:44 51°13.587 2°56.079 122.9 1.5 301 10.8
2004-12-10 08:01:49 51°13.588 2°56.077 121.9 1.5 300 10.9
2004-12-10 08:01:53 51°13.588 2°56.075 120.9 1.3 300 10.9
2004-12-10 08:01:57 51°13.589 2°56.073 120 1.2 300 11.1
2004-12-10 08:02:16 51°13.591 2°56.068 115.6 1.1 300 11.2
2004-12-10 08:02:27 51°13.592 2°56.068 111 0.3 330 11.2
2004-12-10 08:02:29 51°13.592 2°56.069 106.5 0.4 72 11.1
2004-12-10 08:02:45 51°13.592 2°56.074 94.9 1 82 10.9
2004-12-10 08:02:50 51°13.593 2°56.076 91.6 1 81 10.8
2004-12-10 08:02:55 51°13.593 2°56.079 89.1 1.2 80 10.7
2004-12-10 08:03:01 51°13.593 2°56.082 87.4 1 81 10.5
2004-12-10 08:03:03 51°13.593 2°56.082 85.6 0.5 48 10.2
2004-12-10 08:03:20 51°13.594 2°56.087 83.2 1.3 76 9.2
2004-12-10 08:03:27 51°13.595 2°56.091 85.4 1.3 77 8.3
2004-12-10 08:03:32 51°13.595 2°56.094 88.2 1.2 80 8.4
2004-12-10 08:03:37 51°13.595 2°56.096 90.4 1.2 79 8.5
2004-12-10 08:03:41 51°13.595 2°56.098 92 1.2 79 8.6
2004-12-10 08:03:47 51°13.596 2°56.1 93.2 1.1 82 8.5
2004-12-10 08:03:50 51°13.596 2°56.101 94.7 0.6 82 8.6
2004-12-10 08:04:08 51°13.596 2°56.104 100.1 0.2 30 8.6
2004-12-10 08:04:13 51°13.596 2°56.104 101.7 0.2 30 8.6
2004-12-10 08:04:19 51°13.596 2°56.105 103 0.1 36 8.6
2004-12-10 08:04:23 51°13.596 2°56.105 104.3   12 8.5
2004-12-10 08:04:29 51°13.597 2°56.105 105.2 0.1 17 8.6
2004-12-10 08:04:34 51°13.597 2°56.105 105.9 0.1 17 8.6
2004-12-10 08:04:39 51°13.597 2°56.105 106.7 0.1 91 8.6
2004-12-10 08:04:43 51°13.596 2°56.105 107.9 0.1 91 8.6
2004-12-10 08:04:47 51°13.597 2°56.105 108.8 0.1 127 8.6
2004-12-10 08:04:53 51°13.596 2°56.105 109.8 0.1 90 8.6
2004-12-10 08:04:59 51°13.597 2°56.106 111 0.2 44 8.6
2004-12-10 08:05:00 51°13.597 2°56.106 111.1 0.1 43 8.6
2004-12-10 08:05:08 51°13.597 2°56.106 111.1 0.1 97 8.6
2004-12-10 08:05:13 51°13.597 2°56.107 111.2 0.1 97 8.6
2004-12-10 08:05:31 51°13.597 2°56.107 114.8 0.1 15 8.4
2004-12-10 08:05:37 51°13.597 2°56.107 115.9 0.1 13 8.6
2004-12-10 08:05:43 51°13.598 2°56.107 117.3 0.1 11 8.6
2004-12-10 08:05:47 51°13.598 2°56.107 118.9 0.1 7 8.6
2004-12-10 08:05:53 51°13.598 2°56.107 120.2 0.1 6 8.6
2004-12-10 08:05:57 51°13.598 2°56.107 121.7 0.1 6 -999
2004-12-10 08:06:03 51°13.598 2°56.107 123.4 0.1 17 7.3
2004-12-10 08:06:08 51°13.598 2°56.106 125.3 0.3 228 8.6
2004-12-10 08:06:11 51°13.598 2°56.106 127.5 0.4 225 8.6
2004-12-10 08:06:17 51°13.598 2°56.106 128.4 0.1 40 8.6
2004-12-10 08:06:23 51°13.598 2°56.106 128.5 0.1 190 8.6
2004-12-10 08:06:34 51°13.598 2°56.106 127 0.1 183 8.6
2004-12-10 08:06:39 51°13.598 2°56.106 126.3   37 8.6
2004-12-10 08:06:43 51°13.598 2°56.106 125.7   256 8.6
2004-12-10 08:06:49 51°13.598 2°56.106 126   256 8.6
2004-12-10 08:06:53 51°13.598 2°56.106 126.8 0.2 245 8.6
2004-12-10 08:06:59 51°13.598 2°56.106 127.9   249 8.6
2004-12-10 08:07:03 51°13.598 2°56.106 128.6 0.2 48 8.6
2004-12-10 08:07:07 51°13.599 2°56.107 128.4 0.2 42 8.6
2004-12-10 08:07:14 51°13.598 2°56.107 127.7   218 8.6
2004-12-10 08:07:19 51°13.598 2°56.107 127.4   218 8.6
2004-12-10 08:07:24 51°13.598 2°56.106 127.4   222 8.6
2004-12-10 08:07:28 51°13.598 2°56.106 127.4   222 8.6
2004-12-10 08:07:33 51°13.598 2°56.106 127.4   222 8.6
2004-12-10 08:07:39 51°13.598 2°56.105 127.4   255 8.6
2004-12-10 08:07:44 51°13.598 2°56.105 127.4   255 8.6
2004-12-10 08:07:49 51°13.598 2°56.105 127.5   175 8.6
2004-12-10 08:07:52 51°13.598 2°56.105 127.5   175 8.6
2004-12-10 08:07:57 51°13.598 2°56.105 127.5   232 8.6
2004-12-10 08:08:19 51°13.598 2°56.106 127.5   276 8.6
2004-12-10 08:08:36 51°13.598 2°56.106 127.5   182 8.6
2004-12-10 08:08:42 51°13.598 2°56.107 127.5   36 8.6
2004-12-10 08:08:47 51°13.598 2°56.107 127.5   2 8.6
2004-12-10 08:08:52 51°13.598 2°56.107 127.5   353 8.7
2004-12-10 08:08:57 51°13.598 2°56.107 127.2   338 8.7
2004-12-10 08:09:00 51°13.598 2°56.107 127.1   338 8.7
2004-12-10 08:09:07 51°13.598 2°56.106 127.1   338 8.7
2004-12-10 08:09:19 51°13.598 2°56.106 127.1   216 8.7
2004-12-10 08:09:21 51°13.598 2°56.106 127.1   226 8.7
2004-12-10 08:09:50 51°13.599 2°56.106 127.1   319 8.7
2004-12-10 08:09:54 51°13.599 2°56.106 127.1   319 8.7
2004-12-10 08:09:59 51°13.599 2°56.106 127.1   319 8.7
2004-12-10 08:10:02 51°13.599 2°56.106 127.1   170 8.7
2004-12-10 08:10:20 51°13.599 2°56.106 127.1   217 8.7
2004-12-10 08:10:30 51°13.599 2°56.106 127.1   230 8.7
2004-12-10 08:10:33 51°13.599 2°56.106 127.1   234 8.7
2004-12-10 08:10:38 51°13.599 2°56.106 127.1   146 8.7
2004-12-10 08:10:57 51°13.599 2°56.108 127.1   225 8.7
2004-12-10 08:11:01 51°13.599 2°56.108 127.1   207 8.7
2004-12-10 08:11:06 51°13.599 2°56.109 127.1   188 8.7
2004-12-10 08:11:12 51°13.599 2°56.109 127.1   197 8.7
2004-12-10 08:11:16 51°13.599 2°56.109 127.1   197 8.7
2004-12-10 08:11:18 51°13.599 2°56.109 127.1   182 8.7
2004-12-10 08:11:27 51°13.599 2°56.108 127.1   166 8.7
2004-12-10 08:11:33 51°13.599 2°56.108 127.1   125 8.7
2004-12-10 08:11:38 51°13.599 2°56.108 127.2   26 8.7
2004-12-10 08:11:40 51°13.599 2°56.108 127.2   307 8.7
2004-12-10 08:11:46 51°13.599 2°56.108 127.2   307 8.7
2004-12-10 08:11:52 51°13.599 2°56.108 127.2   214 8.7
2004-12-10 08:11:56 51°13.599 2°56.108 127.2   215 8.7
2004-12-10 08:12:00 51°13.599 2°56.108 127.2   230 8.7
2004-12-10 08:12:06 51°13.599 2°56.108 127.2   240 8.7
2004-12-10 08:12:12 51°13.599 2°56.108 127.2   211 8.7
2004-12-10 08:12:17 51°13.599 2°56.108 127.2   206 8.8
2004-12-10 08:12:22 51°13.598 2°56.108 127.2   217 8.7
2004-12-10 08:12:24 51°13.598 2°56.108 127.2   217 8.7
2004-12-10 08:12:32 51°13.598 2°56.108 127.2   192 8.7
2004-12-10 08:12:38 51°13.598 2°56.108 127.2   205 8.7
2004-12-10 08:12:42 51°13.599 2°56.107 127.2   228 8.7
2004-12-10 08:12:48 51°13.599 2°56.107 127.2     8.8
2004-12-10 08:12:51 51°13.599 2°56.107 127.2     8.8
2004-12-10 08:12:56 51°13.599 2°56.107 127.2   137 8.8
2004-12-10 08:13:00 51°13.599 2°56.107 127.2   210 8.8
2004-12-10 08:13:14 51°13.599 2°56.107 127.2   180 8.8
2004-12-10 08:13:16 51°13.599 2°56.107 127.2   218 8.8
2004-12-10 08:13:24 51°13.599 2°56.107 127.2   217 8.8
2004-12-10 08:13:28 51°13.599 2°56.107 127.2   277 8.8
2004-12-10 08:13:34 51°13.599 2°56.107 127.2   291 8.8
2004-12-10 08:13:45 51°13.599 2°56.108 127.2   145 8.8
2004-12-10 08:13:48 51°13.599 2°56.108 127.2   144 8.8
2004-12-10 08:13:54 51°13.599 2°56.107 127.2   238 8.8
2004-12-10 08:14:02 51°13.598 2°56.107 127.2   220 8.8
2004-12-10 08:14:04 51°13.598 2°56.107 127.2   188 8.8
2004-12-10 08:14:18 51°13.598 2°56.107 127.2   254 8.8
2004-12-10 08:14:22 51°13.598 2°56.107 127.2   254 8.8
2004-12-10 08:14:26 51°13.598 2°56.107 127.2   246 8.8
2004-12-10 08:14:32 51°13.598 2°56.107 127.2   246 8.8
2004-12-10 08:14:36 51°13.598 2°56.107 127.2   246 8.8
2004-12-10 08:14:46 51°13.598 2°56.106 127.3   232 8.8
2004-12-10 08:14:52 51°13.598 2°56.106 127.3   232 8.8
2004-12-10 08:15:22 51°13.598 2°56.108 127.3   136 8.8
2004-12-10 08:15:26 51°13.598 2°56.108 127.3   189 8.8
2004-12-10 08:15:32 51°13.598 2°56.108 127.3   194 8.8
2004-12-10 08:15:34 51°13.598 2°56.108 127.3   233 8.8
2004-12-10 08:15:44 51°13.598 2°56.108 127.3   212 8.8
2004-12-10 08:15:50 51°13.598 2°56.107 127.3   217 8.8
2004-12-10 08:15:56 51°13.598 2°56.107 127.3   222 8.8
2004-12-10 08:16:00 51°13.598 2°56.107 127.3   206 8.8
2004-12-10 08:16:09 51°13.597 2°56.107 127.7 0.1 218 8.8
2004-12-10 08:16:14 51°13.597 2°56.106 128.4   248 8.8
2004-12-10 08:16:20 51°13.597 2°56.106 128.8   66 8.8
2004-12-10 08:16:26 51°13.598 2°56.106 128.8   72 8.8
2004-12-10 08:16:30 51°13.598 2°56.106 128.8 0.1 50 8.8
2004-12-10 08:16:33 51°13.598 2°56.106 128.5 0.1 50 8.8
2004-12-10 08:16:39 51°13.597 2°56.106 128.4 0.1 216 8.8
2004-12-10 08:16:52 51°13.597 2°56.106 128.5     8.8
2004-12-10 08:16:58 51°13.597 2°56.106 128.5   289 8.8
2004-12-10 08:17:00 51°13.597 2°56.106 128.5   61 9
2004-12-10 08:17:06 51°13.597 2°56.106 128.4   104 8.8
2004-12-10 08:17:09 51°13.597 2°56.106 128.1   74 8.8
2004-12-10 08:17:21 51°13.597 2°56.107 127.3   59 8.7
2004-12-10 08:17:26 51°13.597 2°56.107 126.9   207 8.8
2004-12-10 08:17:32 51°13.597 2°56.107 126.7   194 8.8
2004-12-10 08:17:37 51°13.597 2°56.107 126.7   357 8.8
2004-12-10 08:17:42 51°13.597 2°56.107 126.8   239 8.8
2004-12-10 08:17:52 51°13.597 2°56.107 127   100 8.8
2004-12-10 08:17:54 51°13.597 2°56.107 126.2 0.1 188 8.8
2004-12-10 08:18:02 51°13.597 2°56.107 125.1 0.1 188 8.8
2004-12-10 08:18:05 51°13.597 2°56.106 123.7 0.1 188 8.8
2004-12-10 08:18:12 51°13.597 2°56.106 121.8 0.2 188 8.8
2004-12-10 08:18:16 51°13.598 2°56.106 120.1 0.2 197 8.9
2004-12-10 08:18:22 51°13.598 2°56.106 118.3 0.1 195 8.9
2004-12-10 08:18:24 51°13.598 2°56.106 116.5 0.2 193 8.9
2004-12-10 08:18:30 51°13.597 2°56.106 114.6 0.2 191 8.9
2004-12-10 08:18:35 51°13.597 2°56.106 112.7 0.1 223 8.9
2004-12-10 08:18:46 51°13.597 2°56.103 110.2 0.7 286 8.9
2004-12-10 08:18:50 51°13.597 2°56.101 109.7 0.7 286 8.8
2004-12-10 08:18:58 51°13.599 2°56.096 109.5 0.7 286 8.8
2004-12-10 08:19:02 51°13.599 2°56.093 109.9 1.7 285 8.9
2004-12-10 08:19:06 51°13.6 2°56.089 110.8 2 289 8.9
2004-12-10 08:19:10 51°13.601 2°56.086 112.3 2.2 288 -999
2004-12-10 08:19:19 51°13.603 2°56.077 114.6 2.5 291 -999
2004-12-10 08:19:30 51°13.606 2°56.065 115.7 2.5 291 -999
2004-12-10 08:19:35 51°13.608 2°56.059 116.1 2.9 293 -999
2004-12-10 08:19:39 51°13.609 2°56.054 116.1 2.9 293 -999
2004-12-10 08:19:44 51°13.611 2°56.047 116 3.1 292 -999
2004-12-10 08:19:48 51°13.612 2°56.042 115.9 3.3 292 -999
2004-12-10 08:19:55 51°13.615 2°56.032 115.9 3.4 291 -999
2004-12-10 08:20:00 51°13.617 2°56.024 115.9 3.5 291 -999
2004-12-10 08:20:05 51°13.618 2°56.017 116.3 3.6 291 -999
2004-12-10 08:20:10 51°13.62 2°56.009 117.1 3.7 292 -999
2004-12-10 08:20:13 51°13.621 2°56.005 118.3 3.7 292 -999
2004-12-10 08:20:20 51°13.624 2°55.994 119.3 3.8 293 -999
2004-12-10 08:20:24 51°13.626 2°55.988 120.4 3.8 293 -999
2004-12-10 08:20:30 51°13.629 2°55.978 121.6 4 295 -999
2004-12-10 08:20:35 51°13.632 2°55.97 122.6 4.1 296 -999
2004-12-10 08:20:39 51°13.634 2°55.963 123.5 4.3 298 -999
2004-12-10 08:20:44 51°13.637 2°55.955 124.4 4.4 299 -999
2004-12-10 08:20:50 51°13.64 2°55.945 125 4.4 300 -999
2004-12-10 08:20:55 51°13.643 2°55.936 125.5 4.4 300 -999
2004-12-10 08:21:00 51°13.647 2°55.928 126 4.4 301 -999
2004-12-10 08:21:02 51°13.648 2°55.925 126 4.5 301 -999
2004-12-10 08:21:10 51°13.653 2°55.911 126.1 4.5 302 -999
2004-12-10 08:21:12 51°13.654 2°55.908 126.1 4.5 301 -999
2004-12-10 08:21:25 51°13.663 2°55.886 125.4 4.5 302 -999
2004-12-10 08:21:34 51°13.668 2°55.871 124.7 4.5 301 -999
2004-12-10 08:21:39 51°13.672 2°55.862 123.8 4.5 301 -999
2004-12-10 08:21:44 51°13.675 2°55.854 123.2 4.5 300 -999
2004-12-10 08:21:46 51°13.676 2°55.85 122.4 4.5 300 -999
2004-12-10 08:22:03 51°13.686 2°55.821 119.7 4.4 297 -999
2004-12-10 08:22:16 51°13.693 2°55.799 116.5 4.2 296 -999
2004-12-10 08:22:23 51°13.697 2°55.787 114.8 4.2 295 -999
2004-12-10 08:22:26 51°13.698 2°55.782 113.4 4.2 293 -999
2004-12-10 08:22:42 51°13.704 2°55.755 107.8 3.7 288 -999
2004-12-10 08:22:46 51°13.704 2°55.75 106.1 3.7 288 -999
2004-12-10 08:22:52 51°13.705 2°55.745 103.7 2.4 286 -999
2004-12-10 08:22:55 51°13.706 2°55.742 101 1.5 291 15.1
2004-12-10 08:23:01 51°13.706 2°55.74 97.4 0.9 296 14.8
2004-12-10 08:23:04 51°13.707 2°55.74 92.8 0.5 331 14.5
2004-12-10 08:23:22 51°13.71 2°55.746 73.7 1.5 54 15
2004-12-10 08:23:25 51°13.711 2°55.748 67.1 1.7 53 15
2004-12-10 08:23:38 51°13.715 2°55.754 54.4 1.3 45 15
2004-12-10 08:23:42 51°13.715 2°55.755 51.7 1.3 45 14.8
2004-12-10 08:23:45 51°13.715 2°55.755 48.1   78 14.8
2004-12-10 08:23:54 51°13.715 2°55.755 45 0.2 202 14.8
2004-12-10 08:23:58 51°13.714 2°55.753 42.9 0.7 218 15
2004-12-10 08:24:03 51°13.713 2°55.752 40.9 0.8 215 15.1
2004-12-10 08:24:09 51°13.71 2°55.749 39.9 0.8 215 15.1
2004-12-10 08:24:14 51°13.709 2°55.747 38.7 1.6 214 -999
2004-12-10 08:24:18 51°13.707 2°55.746 38.2 1.6 214 -999
2004-12-10 08:24:23 51°13.706 2°55.744 38.1 1.6 214 -999
2004-12-10 08:24:28 51°13.705 2°55.744 37.5 0.4 198 -999
2004-12-10 08:24:33 51°13.705 2°55.744 35.2 0.4 198 -999
2004-12-10 08:24:39 51°13.706 2°55.745 31.3 0.5 25 -999
2004-12-10 08:24:44 51°13.707 2°55.745 25.8 0.9 14 15
2004-12-10 08:24:47 51°13.708 2°55.746 20.8 1.3 18 -999
2004-12-10 08:24:55 51°13.711 2°55.747 11.5 1.3 18 -999
2004-12-10 08:25:03 51°13.716 2°55.747 6.4 1.3 18 -999
2004-12-10 08:25:06 51°13.718 2°55.747 1.7 2.4 354 14.3
2004-12-10 08:25:13 51°13.723 2°55.745 355.5 2.6 349 -999
2004-12-10 08:25:17 51°13.726 2°55.743 348.5 2.9 341 12.1
2004-12-10 08:25:22 51°13.73 2°55.74 341.1 2.9 341 12
2004-12-10 08:25:27 51°13.734 2°55.736 334.2 3.3 334 11.9
2004-12-10 08:25:37 51°13.743 2°55.727 326.7 3.8 324 11.7
2004-12-10 08:25:44 51°13.75 2°55.719 326.4 4.1 323 11.9
2004-12-10 08:25:45 51°13.751 2°55.718 326.7 4.5 324 11.7
2004-12-10 08:25:52 51°13.758 2°55.709 327.3 4.9 324 11.6
2004-12-10 08:25:58 51°13.765 2°55.702 328 4.9 324 11.7
2004-12-10 08:26:03 51°13.771 2°55.695 328.6 5.4 324 11.8
2004-12-10 08:26:08 51°13.778 2°55.688 329.1 5.8 325 11.8
2004-12-10 08:26:13 51°13.785 2°55.68 330 5.9 326 11.7
2004-12-10 08:26:15 51°13.788 2°55.676 330.9 6.1 327 11.8
2004-12-10 08:26:29 51°13.81 2°55.654 332.8 6.1 327 12.2
2004-12-10 08:26:32 51°13.815 2°55.649 333.7 6.7 329 12.3
2004-12-10 08:26:38 51°13.825 2°55.64 334.5 6.9 331 12.2
2004-12-10 08:26:45 51°13.837 2°55.627 335.3 7 331 12.1
2004-12-10 08:26:56 51°13.857 2°55.611 337 7.2 333 11.8
2004-12-10 08:26:58 51°13.86 2°55.608 337.8 7.3 333 12
2004-12-10 08:27:14 51°13.89 2°55.586 337.6 7.3 333 12.1
2004-12-10 08:27:20 51°13.902 2°55.577 337.7 7.5 333 11.8
2004-12-10 08:27:23 51°13.908 2°55.572 338.1 7.6 334 11.9
2004-12-10 08:27:27 51°13.915 2°55.566 338.1 7.7 333 12.1
2004-12-10 08:27:38 51°13.936 2°55.551 338.9 7.7 334 11.8
2004-12-10 08:27:44 51°13.947 2°55.542 339.6 7.7 335 11.5
2004-12-10 08:27:55 51°13.969 2°55.526 340.4 7.8 335 11.9
2004-12-10 08:28:00 51°13.98 2°55.521 340.9 8 337 12.1
2004-12-10 08:28:05 51°13.99 2°55.515 341.2 8 337 12.3
2004-12-10 08:28:10 51°14.001 2°55.508 340.9 8.1 336 12.2
2004-12-10 08:28:15 51°14.011 2°55.5 340.8 8.2 337 12
2004-12-10 08:28:21 51°14.023 2°55.49 341.1 8.2 337 11.6
2004-12-10 08:28:24 51°14.029 2°55.485 341.2 8.3 337 11.8
2004-12-10 08:28:28 51°14.037 2°55.479 341.3 8.4 337 11.4
2004-12-10 08:28:38 51°14.059 2°55.464 342.3 8.4 337 11.6
2004-12-10 08:28:42 51°14.067 2°55.458 342.2 8.5 336 11.6
2004-12-10 08:28:51 51°14.087 2°55.445 340.6 8.5 336 11.5
2004-12-10 08:29:00 51°14.107 2°55.432 340.5 8.5 336 11.7
2004-12-10 08:29:04 51°14.115 2°55.425 340.8 8.5 335 11.6
2004-12-10 08:29:10 51°14.127 2°55.413 340.5 8.5 335 11.8
2004-12-10 08:29:14 51°14.136 2°55.406 339.2 8.7 333 12.3
2004-12-10 08:29:19 51°14.147 2°55.398 338.2 8.7 333 12.4
2004-12-10 08:29:24 51°14.158 2°55.389 337.5 8.8 332 12.5
2004-12-10 08:29:30 51°14.171 2°55.378 336.1 8.9 329 12.3
2004-12-10 08:29:34 51°14.18 2°55.37 334.2 8.9 328 12.4
2004-12-10 08:29:38 51°14.188 2°55.361 332.4 9 326 12.7
2004-12-10 08:29:43 51°14.198 2°55.349 330.9 9 326 12.4
2004-12-10 08:29:49 51°14.21 2°55.334 328.4 9 326 12.3
2004-12-10 08:30:00 51°14.232 2°55.305 326 9 326 12.5
2004-12-10 08:30:05 51°14.242 2°55.291 324.9 9.9 318 12.5
2004-12-10 08:30:06 51°14.244 2°55.288 323.6 10 318 12.5
2004-12-10 08:30:14 51°14.26 2°55.263 322 10.1 317 12.6
2004-12-10 08:30:25 51°14.28 2°55.225 317.7 10.4 315 12.4
2004-12-10 08:30:35 51°14.301 2°55.19 317 10.8 312 12.3
2004-12-10 08:30:39 51°14.309 2°55.176 315.7 10.8 312 12.2
2004-12-10 08:30:50 51°14.33 2°55.134 313.4 10.9 307 12.2
2004-12-10 08:30:54 51°14.337 2°55.118 311.2 10.9 307 12.1
2004-12-10 08:31:00 51°14.346 2°55.093 309.5 11 303 12
2004-12-10 08:31:06 51°14.356 2°55.068 307.5 11.1 302 12.2
2004-12-10 08:31:10 51°14.363 2°55.051 305.5 11.1 302 12.3
2004-12-10 08:31:16 51°14.372 2°55.026 304.5 11.1 302 12.2
2004-12-10 08:31:20 51°14.377 2°55.008 302 11.3 300 12.2
2004-12-10 08:31:26 51°14.384 2°54.98 297.9 11.3 293 12
2004-12-10 08:31:30 51°14.387 2°54.96 291.7 11.4 285 12
2004-12-10 08:31:34 51°14.39 2°54.939 288.1 11.5 284 11.9
2004-12-10 08:31:46 51°14.399 2°54.878 286.6 11.9 283 12
2004-12-10 08:31:56 51°14.403 2°54.825 280.8 12.4 275 11.9
2004-12-10 08:32:10 51°14.405 2°54.747 275.9 12.6 273 12.5
2004-12-10 08:32:14 51°14.406 2°54.724 275.7 12.6 273 12.3
2004-12-10 08:32:20 51°14.406 2°54.69 275.7 12.6 273 12.2
2004-12-10 08:32:23 51°14.407 2°54.673 275.8 12.9 273 12.1
2004-12-10 08:32:29 51°14.409 2°54.638 276.4 12.9 273 12
2004-12-10 08:32:34 51°14.409 2°54.609 276.1 13 273 12
2004-12-10 08:32:41 51°14.41 2°54.569 274.7 13 271 12.2
2004-12-10 08:32:46 51°14.409 2°54.54 273.7 13 269 11.9
2004-12-10 08:32:50 51°14.408 2°54.517 272.3 13 268 12
2004-12-10 08:32:54 51°14.406 2°54.495 268.3 12.9 262 11.6
2004-12-10 08:32:59 51°14.403 2°54.467 264.8 12.9 259 11.3
2004-12-10 08:33:04 51°14.399 2°54.439 261 12.9 256 11.2
2004-12-10 08:33:08 51°14.395 2°54.417 258.6 12.9 254 11.1
2004-12-10 08:33:13 51°14.389 2°54.391 255.7 12.8 250 11
2004-12-10 08:33:20 51°14.38 2°54.354 252.9 12.8 247 11
2004-12-10 08:33:24 51°14.374 2°54.334 250.2 12.8 247 10.9
2004-12-10 08:33:30 51°14.365 2°54.303 248.9 12.9 246 10.9
2004-12-10 08:33:35 51°14.357 2°54.277 248.6 12.9 246 11
2004-12-10 08:33:40 51°14.35 2°54.251 248.2 12.9 245 11
2004-12-10 08:33:50 51°14.334 2°54.2 247.3 12.9 244 10.8
2004-12-10 08:33:57 51°14.323 2°54.164 246.6 12.9 243 10.9
2004-12-10 08:33:59 51°14.32 2°54.153 246.2 13 243 10.9
2004-12-10 08:34:06 51°14.308 2°54.118 245.8 13 243 10.9
2004-12-10 08:34:12 51°14.298 2°54.087 245.8 13 243 10.8
2004-12-10 08:34:16 51°14.292 2°54.067 245.9 13 242 10.8
2004-12-10 08:34:22 51°14.282 2°54.036 245.9 13 243 10.8
2004-12-10 08:34:26 51°14.275 2°54.015 246.1 13 243 10.7
2004-12-10 08:34:30 51°14.269 2°53.995 246.4 13 243 10.8
2004-12-10 08:34:37 51°14.256 2°53.96 245.4 13 243 10.8
2004-12-10 08:34:42 51°14.247 2°53.936 243.5 13 243 10.8
2004-12-10 08:34:44 51°14.243 2°53.927 241.3 12.9 237 10.9
2004-12-10 08:34:56 51°14.218 2°53.87 239 13 236 10.8
2004-12-10 08:35:10 51°14.191 2°53.803 240.5 13 237 10.8
2004-12-10 08:35:14 51°14.184 2°53.783 241.6 13 239 10.7
2004-12-10 08:35:20 51°14.173 2°53.753 242 13 239 10.8
2004-12-10 08:35:24 51°14.166 2°53.734 242.5 13 239 10.9
2004-12-10 08:35:30 51°14.155 2°53.705 242.6 12.9 239 10.8
2004-12-10 08:35:35 51°14.145 2°53.68 242.5 13 239 10.9
2004-12-10 08:35:45 51°14.127 2°53.631 242.1 13 239 10.9
2004-12-10 08:35:53 51°14.112 2°53.591 242.4 13 239 10.9
2004-12-10 08:36:01 51°14.097 2°53.552 242.5 13 239 11
2004-12-10 08:39:18 51°13.746 2°52.576 243.9 12.9 241 12
2004-12-10 08:51:28 51°12.498 2°48.983 244.4 12.5 241 13.7
2004-12-10 08:51:38 51°12.482 2°48.934 244.2 12.5 242 13.7
2004-12-10 09:13:50 51°10.496 2°42.402 247.9 12.1 246 12.7
2004-12-10 09:22:36 51°9.775 2°39.809 248.9 12.5 247 13
2004-12-10 09:37:38 51°9.223 2°37.293 247.4 0.6 29 14.3
2004-12-10 09:43:01 51°9.259 2°37.303 246.2 0.3 357 14.7
2004-12-10 10:47:18 51°11.158 2°40.882 16.7 4.1 34 16.2
2004-12-10 10:50:38 51°11.325 2°41.04 353.2 3.2 24 16.5
2004-12-10 12:14:50 51°14.257 2°49.555 68.5 2.8 54 13.7